Terminal Aerodrome Forecast
Issued by NWS Cleveland, OH

Home | Current Version | Previous Version | Text Only | Print | Product List | Glossary On
Versions: 1 2 3 4 5 6 7 8 9 10 11 12 13 14 15 16 17 18 19 20 21 22 23 24
000
FTUS41 KCLE 311400 AAB
TAFCAK
TAF AMD
KCAK 311418Z 3114/0112 24006KT 6SM HZ BKN008
     FM311530 24008KT P6SM BKN018
     FM311700 24008KT P6SM BKN040
     FM312300 VRB03KT P6SM SCT050=

USA.gov is the U.S. government's official web portal to all federal, state and local government web resources and services.